AirNav   TITAN Aviation Fuels
 
 384 users online  

2VE2 Spring Valley Hospital Heliport
Las Vegas, Nevada, USA

GOING TO LAS VEGAS?


FAA INFORMATION EFFECTIVE 22 APRIL 2021

Location

FAA Identifier: 2VE2
Lat/Long: 36-05-27.6800N 115-14-21.7400W
36-05.461333N 115-14.362333W
36.0910222,-115.2393722
(estimated)
Elevation: 2375 ft. / 724 m (estimated)
From city: 7 miles S of LAS VEGAS, NV
Time zone: UTC -7 (UTC -8 during Standard Time)
Zip code: 89118

Heliport Operations

Heliport use: Private use, MEDICAL USE.
Activation date: 06/2007
Control tower: no
ARTCC: LOS ANGELES CENTER
FSS: RENO FLIGHT SERVICE STATION
Attendance: UNATNDD
Wind indicator: lighted
Segmented circle: no
Lights: SS-SR

Heliport Communications

WX ASOS at LAS (4 nm E): PHONE 725-600-7124
WX ASOS at VGT (8 nm N): 118.05 (702-648-6633)
WX AWOS-3PT at HND (9 nm SE): 120.775 (702-614-4537)

Nearby radio navigation aids

VOR radial/distance  VOR name  Freq  Var
LASr265/3.9LAS VEGAS VORTAC116.9015E
BLDr272/19.1BOULDER CITY VORTAC116.7015E

Heliport Services

Runway Information

Helipad H1

Dimensions: 60 x 60 ft. / 18 x 18 m
Surface: concrete
Runway edge lights: PERI
Operational restrictions: HELIPAD IS ELEVATED ATOP A 3 FT MOUND. MAX GROSS WEIGHT IS 25,000 LBS.
Latitude: 36-05.461333N
Longitude: 115-14.362333W
Elevation: 2375.0 ft.
Traffic pattern: leftleft

Heliport Ownership and Management from official FAA records

Ownership: Privately-owned
Owner: SPRING VALLEY HOSPITAL
5400 RAINBOW BLVD
LAS VEGAS, NV 89118
Phone 702-853-3000
Manager: DAVID BLACK
5400 RAINBOW BLVD
LAS VEGAS, NV 89118
Phone 702-853-3000

Additional Remarks

FOR CD CTC LAS VEGAS APCH AT 725-200-4432.

Instrument Procedures

There are no published instrument procedures at 2VE2.

Some nearby airports with instrument procedures:

KLAS - Mc Carran International Airport (4 nm E)
KVGT - North Las Vegas Airport (8 nm N)
KHND - Henderson Executive Airport (9 nm SE)
KLSV - Nellis Air Force Base (13 nm NE)
KBVU - Boulder City Municipal Airport (20 nm SE)
 
Loc | Ops | Rwys | IFR | FBO | Links
Com | Nav | Svcs | Stats | Notes
Area around 2VE2 (Spring Valley Hospital Heliport)
 
Road maps at: MapQuest Bing Google
 
Aerial photo
WARNING: Photo may not be current or correct
Aerial photo of 2VE2 (Spring Valley Hospital Heliport)
Do you have a better or more recent aerial photo of Spring Valley Hospital Heliport that you would like to share? If so, please send us your photo.

 
Sectional chart

 
Airport distance calculator
Flying to Spring Valley Hospital Heliport? Find the distance to fly.

From to 2VE2

Sunrise and sunset
Times for 09-May-2021
 Local
(UTC-7)
 Zulu
(UTC)
Morning civil twilight05:1312:13
Sunrise05:4112:41
Sunset19:3402:34
Evening civil twilight20:0203:02

Current date and time
Zulu (UTC)  09-May-2021 08:13:25
Local (UTC-7)  09-May-2021 01:13:25
 
METAR
KLAS 
4nm E 
090756Z 00000KT 10SM FEW120 22/M11 A2986 RMK AO2 SLP089 T02171111 403170194 $
KVGT 
7nm N 
090753Z AUTO 34009KT 10SM CLR 24/M16 A2982 RMK AO2 SLP090 T02391161 403220211
KHND 
8nm SE 
090756Z AUTO 21005KT 10SM CLR 19/M10 A2989 RMK AO2 SLP114 T01891100 403110172
KLSV 
13nm NE 
090458Z AUTO 00000KT 10SM CLR 23/M16 A2983 RMK AO2 SLP082 T02341163 $
TAF
KLAS 
4nm E 
090520Z 0906/1012 23006KT P6SM SKC FM091600 06010KT P6SM SKC FM092300 22012G20KT P6SM SKC FM100400 22010KT P6SM SKC
KVGT 
7nm N 
090520Z 0906/1006 34007KT P6SM SKC FM091700 10007KT P6SM SKC FM092300 22011KT P6SM SKC FM100400 33005KT P6SM SKC
KHND 
8nm SE 
090520Z 0906/1006 17007KT P6SM SKC FM091600 05009KT P6SM SKC FM092200 21014G23KT P6SM SKC
KLSV 
13nm NE 
081500Z 0815/0921 35009KT 9999 SKC QNH2984INS TEMPO 0815/0820 01015G25KT 520009 BECMG 0819/0820 03010G18KT 9999 SKC QNH2974INS BECMG 0823/0824 03009KT 9999 SKC QNH2975INS BECMG 0904/0905 04010G15KT 9999 SKC QNH2975INS TX32/0823Z TN19/0912Z
NOTAMs
Click for the latest NOTAMs
NOTAMs are issued by the DoD/FAA and will open in a separate window not controlled by AirNav.

 

 
 

Would you like to see your business listed on this page?

 If your business provides an interesting product or service to pilots, flight crews, aircraft, or users of the Spring Valley Hospital Heliport, you should consider listing it here.  To start the listing process, click on the button below
 
Add a business
 

Other Pages about Spring Valley Hospital Heliport

Update a link
 
Copyright © AirNav, LLC. All rights reserved. Privacy Policy  Contact